Acme, Washington
Current Conditions -  °F | °C
As of 11:53 AM on Sunday 25 Jan 2015 (Local Time) from KBLI Reporting Station
Haze Haze  
Wind Chill: 55°   Ceiling: 600
Heat Index: 55°   Visibility: 4mi
Dew Point: 52°   Wind: 6mph
Humidity: 89%   Direction: 360°N
Pressure: 30.15"   Gusts: NA
Location:  48.72°N, 122.21°W
Report Text: KBLI 251953Z 36005KT 4SM BR OVC006 13/11 A3015 RMK AO2 CIG 004V009 SLP217 T01280111 $
Loading
Personal Weather Stations






























Interactive Weather Map New forecast layout! Learn more

10-Day Weather Forecast

Advertisements
Track Severe Weather on mobile